sensor_id;sensor_type;location;lat;lon;timestamp;pressure;altitude;pressure_sealevel;temperature;humidity
60319;BME280;46163;52.306;5.634;2023-03-01T00:01:25;103100.63;;;15.68;49.30
60319;BME280;46163;52.306;5.634;2023-03-01T00:03:51;103097.28;;;15.66;49.38
60319;BME280;46163;52.306;5.634;2023-03-01T00:06:18;103092.25;;;15.63;49.34
60319;BME280;46163;52.306;5.634;2023-03-01T00:08:44;103096.13;;;15.60;49.19
60319;BME280;46163;52.306;5.634;2023-03-01T00:11:13;103092.78;;;15.58;49.17
60319;BME280;46163;52.306;5.634;2023-03-01T00:13:39;103083.06;;;15.57;49.23
60319;BME280;46163;52.306;5.634;2023-03-01T00:16:06;103079.06;;;15.53;49.15
60319;BME280;46163;52.306;5.634;2023-03-01T00:18:33;103087.09;;;15.53;49.14
60319;BME280;46163;52.306;5.634;2023-03-01T00:20:59;103085.63;;;15.50;49.04
60319;BME280;46163;52.306;5.634;2023-03-01T00:23:24;103078.59;;;15.49;48.96
60319;BME280;46163;52.306;5.634;2023-03-01T00:25:50;103082.28;;;15.48;49.13
60319;BME280;46163;52.306;5.634;2023-03-01T00:28:16;103083.47;;;15.46;48.75
60319;BME280;46163;52.306;5.634;2023-03-01T00:30:42;103076.78;;;15.42;48.95
60319;BME280;46163;52.306;5.634;2023-03-01T00:33:07;103078.47;;;15.43;49.02
60319;BME280;46163;52.306;5.634;2023-03-01T00:35:34;103082.34;;;15.40;48.83
60319;BME280;46163;52.306;5.634;2023-03-01T00:37:59;103074.47;;;15.39;48.86
60319;BME280;46163;52.306;5.634;2023-03-01T00:40:28;103072.81;;;15.38;48.96
60319;BME280;46163;52.306;5.634;2023-03-01T00:42:57;103076.47;;;15.37;48.81
60319;BME280;46163;52.306;5.634;2023-03-01T00:45:23;103072.31;;;15.34;48.78
60319;BME280;46163;52.306;5.634;2023-03-01T00:47:50;103074.53;;;15.31;48.64
60319;BME280;46163;52.306;5.634;2023-03-01T00:50:16;103061.13;;;15.31;48.84
60319;BME280;46163;52.306;5.634;2023-03-01T00:52:43;103059.13;;;15.24;48.90
60319;BME280;46163;52.306;5.634;2023-03-01T00:55:08;103058.78;;;15.27;48.60
60319;BME280;46163;52.306;5.634;2023-03-01T00:57:34;103058.13;;;15.25;48.55
60319;BME280;46163;52.306;5.634;2023-03-01T00:59:59;103049.41;;;15.23;48.33
60319;BME280;46163;52.306;5.634;2023-03-01T01:02:26;103046.75;;;15.23;48.63
60319;BME280;46163;52.306;5.634;2023-03-01T01:04:51;103046.09;;;15.21;48.46
60319;BME280;46163;52.306;5.634;2023-03-01T01:07:17;103049.78;;;15.20;48.59
60319;BME280;46163;52.306;5.634;2023-03-01T01:09:45;103043.75;;;15.18;48.64
60319;BME280;46163;52.306;5.634;2023-03-01T01:12:11;103043.09;;;15.16;48.54
60319;BME280;46163;52.306;5.634;2023-03-01T01:14:37;103036.25;;;15.14;48.64
60319;BME280;46163;52.306;5.634;2023-03-01T01:17:03;103038.09;;;15.13;48.54
60319;BME280;46163;52.306;5.634;2023-03-01T01:19:28;103036.44;;;15.12;48.50
60319;BME280;46163;52.306;5.634;2023-03-01T01:21:54;103021.88;;;15.07;48.55
60319;BME280;46163;52.306;5.634;2023-03-01T01:24:19;103028.72;;;15.09;48.55
60319;BME280;46163;52.306;5.634;2023-03-01T01:26:45;103035.09;;;15.08;48.47
60319;BME280;46163;52.306;5.634;2023-03-01T01:29:11;103032.13;;;15.03;48.37
60319;BME280;46163;52.306;5.634;2023-03-01T01:31:38;103028.59;;;15.03;48.37
60319;BME280;46163;52.306;5.634;2023-03-01T01:34:07;103022.38;;;15.02;48.32
60319;BME280;46163;52.306;5.634;2023-03-01T01:36:34;103034.81;;;15.03;48.39
60319;BME280;46163;52.306;5.634;2023-03-01T01:39:00;103016.19;;;15.02;48.57
60319;BME280;46163;52.306;5.634;2023-03-01T01:41:28;103021.09;;;14.98;48.21
60319;BME280;46163;52.306;5.634;2023-03-01T01:49:27;103021.25;;;14.96;48.23
60319;BME280;46163;52.306;5.634;2023-03-01T01:54:42;103016.22;;;14.93;48.36
60319;BME280;46163;52.306;5.634;2023-03-01T01:57:23;103008.09;;;14.87;48.31
60319;BME280;46163;52.306;5.634;2023-03-01T01:59:57;103013.09;;;14.90;48.25
60319;BME280;46163;52.306;5.634;2023-03-01T02:02:25;103015.94;;;14.88;48.20
60319;BME280;46163;52.306;5.634;2023-03-01T02:04:59;103005.41;;;14.87;48.16
60319;BME280;46163;52.306;5.634;2023-03-01T02:07:29;103009.09;;;14.86;48.11
60319;BME280;46163;52.306;5.634;2023-03-01T02:09:55;103014.63;;;14.84;48.29
60319;BME280;46163;52.306;5.634;2023-03-01T02:12:23;103012.94;;;14.83;48.31
60319;BME280;46163;52.306;5.634;2023-03-01T02:14:49;103008.59;;;14.82;47.99
60319;BME280;46163;52.306;5.634;2023-03-01T02:17:16;103006.09;;;14.81;48.21
60319;BME280;46163;52.306;5.634;2023-03-01T02:30:20;102978.88;;;14.69;47.78
60319;BME280;46163;52.306;5.634;2023-03-01T02:32:47;102984.69;;;14.73;48.09
60319;BME280;46163;52.306;5.634;2023-03-01T02:35:15;102989.03;;;14.74;48.10
60319;BME280;46163;52.306;5.634;2023-03-01T02:37:43;102982.19;;;14.71;48.03
60319;BME280;46163;52.306;5.634;2023-03-01T02:40:14;102981.38;;;14.70;47.64
60319;BME280;46163;52.306;5.634;2023-03-01T02:42:58;102980.03;;;14.66;47.99
60319;BME280;46163;52.306;5.634;2023-03-01T02:45:25;102984.56;;;14.66;47.73
60319;BME280;46163;52.306;5.634;2023-03-01T02:47:54;102981.88;;;14.66;47.59
60319;BME280;46163;52.306;5.634;2023-03-01T02:56:01;102978.72;;;14.62;47.82
60319;BME280;46163;52.306;5.634;2023-03-01T02:58:27;102977.91;;;14.62;47.75
60319;BME280;46163;52.306;5.634;2023-03-01T03:00:52;102971.88;;;14.60;47.59
60319;BME280;46163;52.306;5.634;2023-03-01T03:03:20;102965.66;;;14.59;47.70
60319;BME280;46163;52.306;5.634;2023-03-01T03:05:46;102970.19;;;14.59;47.66
60319;BME280;46163;52.306;5.634;2023-03-01T03:08:12;102965.84;;;14.58;47.80
60319;BME280;46163;52.306;5.634;2023-03-01T03:10:40;102955.31;;;14.56;47.77
60319;BME280;46163;52.306;5.634;2023-03-01T03:13:12;102950.97;;;14.55;47.59
60319;BME280;46163;52.306;5.634;2023-03-01T03:15:39;102956.50;;;14.54;47.67
60319;BME280;46163;52.306;5.634;2023-03-01T03:18:08;102954.66;;;14.54;47.79
60319;BME280;46163;52.306;5.634;2023-03-01T03:20:36;102959.34;;;14.52;47.51
60319;BME280;46163;52.306;5.634;2023-03-01T03:23:02;102952.34;;;14.51;47.43
60319;BME280;46163;52.306;5.634;2023-03-01T03:25:29;102953.31;;;14.50;47.50
60319;BME280;46163;52.306;5.634;2023-03-01T03:27:56;102945.63;;;14.47;47.55
60319;BME280;46163;52.306;5.634;2023-03-01T03:30:30;102948.31;;;14.47;47.46
60319;BME280;46163;52.306;5.634;2023-03-01T03:32:56;102945.00;;;14.45;47.44
60319;BME280;46163;52.306;5.634;2023-03-01T03:35:28;102951.19;;;14.46;47.64
60319;BME280;46163;52.306;5.634;2023-03-01T03:37:58;102942.31;;;14.45;47.61
60319;BME280;46163;52.306;5.634;2023-03-01T03:40:40;102925.22;;;14.38;47.58
60319;BME280;46163;52.306;5.634;2023-03-01T03:43:15;102938.94;;;14.43;47.30
60319;BME280;46163;52.306;5.634;2023-03-01T03:45:41;102929.38;;;14.40;47.34
60319;BME280;46163;52.306;5.634;2023-03-01T03:48:08;102933.25;;;14.38;47.42
60319;BME280;46163;52.306;5.634;2023-03-01T03:50:35;102938.44;;;14.39;47.40
60319;BME280;46163;52.306;5.634;2023-03-01T03:53:09;102933.25;;;14.38;47.29
60319;BME280;46163;52.306;5.634;2023-03-01T03:55:35;102935.94;;;14.38;47.36
60319;BME280;46163;52.306;5.634;2023-03-01T03:58:06;102936.13;;;14.36;47.13
60319;BME280;46163;52.306;5.634;2023-03-01T04:00:37;102935.47;;;14.34;47.65
60319;BME280;46163;52.306;5.634;2023-03-01T04:03:04;102940.81;;;14.34;47.58
60319;BME280;46163;52.306;5.634;2023-03-01T04:05:30;102937.31;;;14.34;47.32
60319;BME280;46163;52.306;5.634;2023-03-01T04:07:56;102943.50;;;14.34;47.43
60319;BME280;46163;52.306;5.634;2023-03-01T04:10:29;102944.34;;;14.35;47.29
60319;BME280;46163;52.306;5.634;2023-03-01T04:12:56;102943.31;;;14.36;47.09
60319;BME280;46163;52.306;5.634;2023-03-01T04:15:23;102945.34;;;14.34;47.25
60319;BME280;46163;52.306;5.634;2023-03-01T04:17:50;102946.66;;;14.38;47.28
60319;BME280;46163;52.306;5.634;2023-03-01T04:20:19;102944.63;;;14.40;47.33
60319;BME280;46163;52.306;5.634;2023-03-01T04:23:03;102949.81;;;14.41;46.97
60319;BME280;46163;52.306;5.634;2023-03-01T04:30:54;102946.06;;;14.59;46.97
60319;BME280;46163;52.306;5.634;2023-03-01T04:33:20;102939.84;;;14.66;46.98
60319;BME280;46163;52.306;5.634;2023-03-01T04:35:47;102939.97;;;14.73;46.59
60319;BME280;46163;52.306;5.634;2023-03-01T04:38:15;102933.72;;;14.81;46.64
60319;BME280;46163;52.306;5.634;2023-03-01T04:40:42;102936.34;;;14.89;46.13
60319;BME280;46163;52.306;5.634;2023-03-01T04:43:11;102935.94;;;15.00;46.09
60319;BME280;46163;52.306;5.634;2023-03-01T04:45:38;102929.56;;;15.01;45.84
60319;BME280;46163;52.306;5.634;2023-03-01T04:48:04;102931.09;;;15.18;45.59
60319;BME280;46163;52.306;5.634;2023-03-01T04:50:30;102925.47;;;15.28;45.45
60319;BME280;46163;52.306;5.634;2023-03-01T04:52:57;102933.28;;;15.38;45.05
60319;BME280;46163;52.306;5.634;2023-03-01T04:55:27;102916.25;;;15.45;45.10
60319;BME280;46163;52.306;5.634;2023-03-01T04:57:53;102915.16;;;15.54;44.83
60319;BME280;46163;52.306;5.634;2023-03-01T05:00:19;102900.56;;;15.57;44.73
60319;BME280;46163;52.306;5.634;2023-03-01T05:02:51;102906.97;;;15.71;44.58
60319;BME280;46163;52.306;5.634;2023-03-01T05:05:25;102885.69;;;15.69;44.35
60319;BME280;46163;52.306;5.634;2023-03-01T05:07:56;102897.09;;;15.86;44.29
60319;BME280;46163;52.306;5.634;2023-03-01T05:10:22;102891.16;;;15.91;44.19
60319;BME280;46163;52.306;5.634;2023-03-01T05:12:49;102887.06;;;15.95;44.13
60319;BME280;46163;52.306;5.634;2023-03-01T05:15:14;102889.84;;;16.01;43.91
60319;BME280;46163;52.306;5.634;2023-03-01T05:17:40;102881.22;;;16.06;43.77
60319;BME280;46163;52.306;5.634;2023-03-01T05:20:06;102877.34;;;16.08;43.68
60319;BME280;46163;52.306;5.634;2023-03-01T05:22:34;102880.09;;;16.15;43.47
60319;BME280;46163;52.306;5.634;2023-03-01T05:25:01;102878.91;;;16.18;43.65
60319;BME280;46163;52.306;5.634;2023-03-01T05:27:27;102886.59;;;16.21;43.15
60319;BME280;46163;52.306;5.634;2023-03-01T05:29:55;102876.94;;;16.26;43.38
60319;BME280;46163;52.306;5.634;2023-03-01T05:32:20;102875.53;;;16.30;43.38
60319;BME280;46163;52.306;5.634;2023-03-01T05:34:46;102874.31;;;16.33;43.51
60319;BME280;46163;52.306;5.634;2023-03-01T05:37:12;102869.22;;;16.38;43.23
60319;BME280;46163;52.306;5.634;2023-03-01T05:39:39;102863.44;;;16.41;43.40
60319;BME280;46163;52.306;5.634;2023-03-01T05:42:10;102866.81;;;16.43;43.00
60319;BME280;46163;52.306;5.634;2023-03-01T05:44:35;102856.88;;;16.44;43.06
60319;BME280;46163;52.306;5.634;2023-03-01T05:47:01;102860.84;;;16.48;43.02
60319;BME280;46163;52.306;5.634;2023-03-01T05:49:26;102853.25;;;16.51;42.82
60319;BME280;46163;52.306;5.634;2023-03-01T05:51:53;102854.50;;;16.55;42.97
60319;BME280;46163;52.306;5.634;2023-03-01T05:54:20;102858.88;;;16.56;42.98
60319;BME280;46163;52.306;5.634;2023-03-01T05:56:46;102862.66;;;16.62;42.83
60319;BME280;46163;52.306;5.634;2023-03-01T05:59:12;102856.88;;;16.65;42.90
60319;BME280;46163;52.306;5.634;2023-03-01T06:01:39;102852.97;;;16.67;42.88
60319;BME280;46163;52.306;5.634;2023-03-01T06:04:05;102857.81;;;16.72;42.63
60319;BME280;46163;52.306;5.634;2023-03-01T06:06:37;102854.94;;;16.74;42.48
60319;BME280;46163;52.306;5.634;2023-03-01T06:09:04;102856.41;;;16.76;42.70
60319;BME280;46163;52.306;5.634;2023-03-01T06:11:29;102852.50;;;16.79;42.56
60319;BME280;46163;52.306;5.634;2023-03-01T06:13:55;102830.72;;;16.74;42.43
60319;BME280;46163;52.306;5.634;2023-03-01T06:16:20;102851.56;;;16.86;42.48
60319;BME280;46163;52.306;5.634;2023-03-01T06:18:46;102844.94;;;16.89;42.30
60319;BME280;46163;52.306;5.634;2023-03-01T06:21:11;102847.03;;;16.93;42.25
60319;BME280;46163;52.306;5.634;2023-03-01T06:23:37;102843.16;;;16.96;42.29
60319;BME280;46163;52.306;5.634;2023-03-01T06:26:07;102851.84;;;16.98;42.27
60319;BME280;46163;52.306;5.634;2023-03-01T06:28:33;102846.91;;;17.02;42.23
60319;BME280;46163;52.306;5.634;2023-03-01T06:30:59;102850.25;;;17.04;41.99
60319;BME280;46163;52.306;5.634;2023-03-01T06:33:24;102857.91;;;17.07;42.10
60319;BME280;46163;52.306;5.634;2023-03-01T06:35:50;102848.63;;;17.09;41.81
60319;BME280;46163;52.306;5.634;2023-03-01T06:38:16;102845.94;;;17.09;41.93
60319;BME280;46163;52.306;5.634;2023-03-01T06:40:44;102847.41;;;17.12;42.00
60319;BME280;46163;52.306;5.634;2023-03-01T06:43:10;102850.75;;;17.14;42.02
60319;BME280;46163;52.306;5.634;2023-03-01T06:45:38;102843.94;;;17.18;41.91
60319;BME280;46163;52.306;5.634;2023-03-01T06:48:05;102856.19;;;17.20;41.84
60319;BME280;46163;52.306;5.634;2023-03-01T06:50:31;102852.47;;;17.21;41.62
60319;BME280;46163;52.306;5.634;2023-03-01T06:52:58;102857.63;;;17.23;41.90
60319;BME280;46163;52.306;5.634;2023-03-01T06:55:23;102864.47;;;17.26;41.59
60319;BME280;46163;52.306;5.634;2023-03-01T06:57:54;102860.94;;;17.25;41.85
60319;BME280;46163;52.306;5.634;2023-03-01T07:00:20;102856.00;;;17.29;41.65
60319;BME280;46163;52.306;5.634;2023-03-01T07:02:46;102863.69;;;17.32;41.65
60319;BME280;46163;52.306;5.634;2023-03-01T07:05:11;102865.34;;;17.33;41.96
60319;BME280;46163;52.306;5.634;2023-03-01T07:07:36;102866.00;;;17.35;41.98
60319;BME280;46163;52.306;5.634;2023-03-01T07:10:02;102862.94;;;17.38;41.62
60319;BME280;46163;52.306;5.634;2023-03-01T07:12:28;102862.94;;;17.38;41.84
60319;BME280;46163;52.306;5.634;2023-03-01T07:14:54;102874.94;;;17.42;41.99
60319;BME280;46163;52.306;5.634;2023-03-01T07:17:19;102868.31;;;17.44;42.09
60319;BME280;46163;52.306;5.634;2023-03-01T07:19:44;102858.22;;;17.46;41.72
60319;BME280;46163;52.306;5.634;2023-03-01T07:22:10;102866.94;;;17.48;41.91
60319;BME280;46163;52.306;5.634;2023-03-01T07:24:35;102861.75;;;17.53;41.60
60319;BME280;46163;52.306;5.634;2023-03-01T07:27:01;102855.75;;;17.51;42.05
60319;BME280;46163;52.306;5.634;2023-03-01T07:29:26;102867.81;;;17.56;41.77
60319;BME280;46163;52.306;5.634;2023-03-01T07:31:54;102859.91;;;17.54;41.52
60319;BME280;46163;52.306;5.634;2023-03-01T07:34:19;102861.59;;;17.55;41.65
60319;BME280;46163;52.306;5.634;2023-03-01T07:36:45;102867.59;;;17.57;41.89
60319;BME280;46163;52.306;5.634;2023-03-01T07:39:11;102866.38;;;17.60;41.92
60319;BME280;46163;52.306;5.634;2023-03-01T07:41:36;102862.63;;;17.61;41.73
60319;BME280;46163;52.306;5.634;2023-03-01T07:44:02;102867.00;;;17.62;41.77
60319;BME280;46163;52.306;5.634;2023-03-01T07:46:27;102869.47;;;17.63;41.96
60319;BME280;46163;52.306;5.634;2023-03-01T07:48:53;102874.88;;;17.63;41.59
60319;BME280;46163;52.306;5.634;2023-03-01T07:51:18;102872.16;;;17.63;41.73
60319;BME280;46163;52.306;5.634;2023-03-01T07:53:46;102867.44;;;17.65;41.54
60319;BME280;46163;52.306;5.634;2023-03-01T07:56:14;102868.47;;;17.64;41.47
60319;BME280;46163;52.306;5.634;2023-03-01T07:58:42;102872.81;;;17.65;41.42
60319;BME280;46163;52.306;5.634;2023-03-01T08:01:13;102874.03;;;17.63;41.27
60319;BME280;46163;52.306;5.634;2023-03-01T08:03:39;102875.28;;;17.60;41.44
60319;BME280;46163;52.306;5.634;2023-03-01T08:06:07;102881.06;;;17.57;41.38
60319;BME280;46163;52.306;5.634;2023-03-01T08:08:33;102878.94;;;17.52;41.61
60319;BME280;46163;52.306;5.634;2023-03-01T08:11:00;102870.25;;;17.50;41.38
60319;BME280;46163;52.306;5.634;2023-03-01T08:13:27;102869.63;;;17.48;41.68
60319;BME280;46163;52.306;5.634;2023-03-01T08:15:53;102872.50;;;17.47;41.37
60319;BME280;46163;52.306;5.634;2023-03-01T08:18:19;102867.50;;;17.44;42.00
60319;BME280;46163;52.306;5.634;2023-03-01T08:20:46;102865.00;;;17.42;41.87
60319;BME280;46163;52.306;5.634;2023-03-01T08:23:12;102854.00;;;17.37;42.47
60319;BME280;46163;52.306;5.634;2023-03-01T08:25:41;102859.00;;;17.40;42.56
60319;BME280;46163;52.306;5.634;2023-03-01T08:28:08;102854.84;;;17.38;42.55
60319;BME280;46163;52.306;5.634;2023-03-01T08:30:34;102868.31;;;17.44;42.75
60319;BME280;46163;52.306;5.634;2023-03-01T08:32:59;102857.34;;;17.46;43.03
60319;BME280;46163;52.306;5.634;2023-03-01T08:35:25;102855.53;;;17.46;43.19
60319;BME280;46163;52.306;5.634;2023-03-01T08:37:51;102863.81;;;17.51;43.40
60319;BME280;46163;52.306;5.634;2023-03-01T08:40:17;102858.03;;;17.55;43.69
60319;BME280;46163;52.306;5.634;2023-03-01T08:42:43;102837.69;;;17.45;43.55
60319;BME280;46163;52.306;5.634;2023-03-01T08:45:12;102856.63;;;17.59;44.14
60319;BME280;46163;52.306;5.634;2023-03-01T08:47:39;102851.88;;;17.61;44.30
60319;BME280;46163;52.306;5.634;2023-03-01T08:50:05;102842.38;;;17.65;44.04
60319;BME280;46163;52.306;5.634;2023-03-01T08:52:32;102852.75;;;17.68;43.63
60319;BME280;46163;52.306;5.634;2023-03-01T08:54:57;102843.00;;;17.67;43.39
60319;BME280;46163;52.306;5.634;2023-03-01T08:57:23;102846.97;;;17.71;43.51
60319;BME280;46163;52.306;5.634;2023-03-01T08:59:48;102849.66;;;17.71;43.10
60319;BME280;46163;52.306;5.634;2023-03-01T09:02:17;102846.97;;;17.71;43.02
60319;BME280;46163;52.306;5.634;2023-03-01T09:04:43;102842.41;;;17.71;42.80
60319;BME280;46163;52.306;5.634;2023-03-01T09:07:10;102835.00;;;17.73;43.08
60319;BME280;46163;52.306;5.634;2023-03-01T09:09:36;102839.34;;;17.74;43.09
60319;BME280;46163;52.306;5.634;2023-03-01T09:12:02;102832.09;;;17.75;43.08
60319;BME280;46163;52.306;5.634;2023-03-01T09:14:28;102823.41;;;17.73;42.85
60319;BME280;46163;52.306;5.634;2023-03-01T09:16:53;102828.78;;;17.73;42.70
60319;BME280;46163;52.306;5.634;2023-03-01T09:19:19;102822.75;;;17.71;42.93
60319;BME280;46163;52.306;5.634;2023-03-01T09:21:44;102818.41;;;17.70;42.66
60319;BME280;46163;52.306;5.634;2023-03-01T09:24:19;102819.00;;;17.72;42.67
60319;BME280;46163;52.306;5.634;2023-03-01T09:26:45;102810.94;;;17.72;42.62
60319;BME280;46163;52.306;5.634;2023-03-01T09:29:12;102813.63;;;17.72;42.43
60319;BME280;46163;52.306;5.634;2023-03-01T09:31:38;102810.09;;;17.71;42.72
60319;BME280;46163;52.306;5.634;2023-03-01T09:34:04;102804.72;;;17.71;42.45
60319;BME280;46163;52.306;5.634;2023-03-01T09:36:30;102783.94;;;17.59;42.36
60319;BME280;46163;52.306;5.634;2023-03-01T09:38:57;102800.16;;;17.72;42.22
60319;BME280;46163;52.306;5.634;2023-03-01T09:41:54;102808.69;;;17.75;42.36
60319;BME280;46163;52.306;5.634;2023-03-01T09:44:40;102807.44;;;17.78;42.23
60319;BME280;46163;52.306;5.634;2023-03-01T09:47:25;102807.06;;;17.81;41.98
60319;BME280;46163;52.306;5.634;2023-03-01T09:54:55;102799.81;;;17.88;41.79
60319;BME280;46163;52.306;5.634;2023-03-01T09:57:49;102800.47;;;17.90;42.00
60319;BME280;46163;52.306;5.634;2023-03-01T10:02:58;102800.31;;;17.98;41.58
60319;BME280;46163;52.306;5.634;2023-03-01T10:08:14;102789.72;;;18.03;41.60
60319;BME280;46163;52.306;5.634;2023-03-01T10:10:46;102788.69;;;18.04;41.87
60319;BME280;46163;52.306;5.634;2023-03-01T10:13:28;102794.09;;;18.11;41.45
60319;BME280;46163;52.306;5.634;2023-03-01T10:16:01;102789.34;;;18.13;41.71
60319;BME280;46163;52.306;5.634;2023-03-01T10:18:31;102795.34;;;18.15;41.36
60319;BME280;46163;52.306;5.634;2023-03-01T10:21:02;102782.31;;;18.19;41.18
60319;BME280;46163;52.306;5.634;2023-03-01T10:23:31;102781.28;;;18.20;41.35
60319;BME280;46163;52.306;5.634;2023-03-01T10:29:04;102776.13;;;18.25;41.25
60319;BME280;46163;52.306;5.634;2023-03-01T10:31:46;102784.59;;;18.28;41.16
60319;BME280;46163;52.306;5.634;2023-03-01T10:34:21;102780.66;;;18.31;41.37
60319;BME280;46163;52.306;5.634;2023-03-01T10:36:50;102779.63;;;18.32;41.14
60319;BME280;46163;52.306;5.634;2023-03-01T10:39:24;102761.78;;;18.18;40.96
60319;BME280;46163;52.306;5.634;2023-03-01T10:42:00;102773.03;;;18.34;41.11
60319;BME280;46163;52.306;5.634;2023-03-01T10:47:01;102754.97;;;18.35;41.21
60319;BME280;46163;52.306;5.634;2023-03-01T10:49:27;102771.56;;;18.39;40.91
60319;BME280;46163;52.306;5.634;2023-03-01T10:51:53;102762.44;;;18.40;40.80
60319;BME280;46163;52.306;5.634;2023-03-01T10:54:26;102765.94;;;18.40;40.89
60319;BME280;46163;52.306;5.634;2023-03-01T10:56:55;102764.91;;;18.41;41.06
60319;BME280;46163;52.306;5.634;2023-03-01T10:59:28;102757.88;;;18.40;40.87
60319;BME280;46163;52.306;5.634;2023-03-01T11:04:34;102749.38;;;18.43;41.07
60319;BME280;46163;52.306;5.634;2023-03-01T11:07:01;102739.66;;;18.42;41.29
60319;BME280;46163;52.306;5.634;2023-03-01T11:09:31;102742.13;;;18.44;41.30
60319;BME280;46163;52.306;5.634;2023-03-01T11:12:04;102731.13;;;18.45;41.25
60319;BME280;46163;52.306;5.634;2023-03-01T11:14:33;102729.47;;;18.44;41.14
60319;BME280;46163;52.306;5.634;2023-03-01T11:19:28;102721.38;;;18.44;41.01
60319;BME280;46163;52.306;5.634;2023-03-01T11:22:07;102722.44;;;18.43;40.99
60319;BME280;46163;52.306;5.634;2023-03-01T11:24:43;102718.06;;;18.42;41.13
60319;BME280;46163;52.306;5.634;2023-03-01T11:27:25;102721.59;;;18.43;41.27
60319;BME280;46163;52.306;5.634;2023-03-01T11:30:12;102716.38;;;18.41;41.31
60319;BME280;46163;52.306;5.634;2023-03-01T11:32:45;102718.47;;;18.39;41.26
60319;BME280;46163;52.306;5.634;2023-03-01T11:35:17;102715.78;;;18.39;41.39
60319;BME280;46163;52.306;5.634;2023-03-01T11:40:47;102704.81;;;18.34;41.44
60319;BME280;46163;52.306;5.634;2023-03-01T11:43:47;102700.41;;;18.33;41.21
60319;BME280;46163;52.306;5.634;2023-03-01T11:52:01;102689.66;;;18.26;41.40
60319;BME280;46163;52.306;5.634;2023-03-01T11:57:43;102695.44;;;18.23;41.52
60319;BME280;46163;52.306;5.634;2023-03-01T12:00:22;102688.59;;;18.21;41.48
60319;BME280;46163;52.306;5.634;2023-03-01T12:25:16;102681.34;;;18.21;41.48
60319;BME280;46163;52.306;5.634;2023-03-01T12:38:42;102667.28;;;18.26;41.31
60319;BME280;46163;52.306;5.634;2023-03-01T12:47:23;102655.25;;;18.28;41.42
60319;BME280;46163;52.306;5.634;2023-03-01T12:50:03;102658.75;;;18.29;41.41
60319;BME280;46163;52.306;5.634;2023-03-01T12:52:47;102668.50;;;18.30;41.53
60319;BME280;46163;52.306;5.634;2023-03-01T12:55:33;102663.13;;;18.30;41.15
60319;BME280;46163;52.306;5.634;2023-03-01T12:58:24;102646.94;;;18.30;41.37
60319;BME280;46163;52.306;5.634;2023-03-01T13:01:03;102647.75;;;18.30;41.57
60319;BME280;46163;52.306;5.634;2023-03-01T13:06:41;102624.56;;;18.29;41.52
60319;BME280;46163;52.306;5.634;2023-03-01T13:12:04;102629.72;;;18.31;41.69
60319;BME280;46163;52.306;5.634;2023-03-01T13:14:53;102620.00;;;18.30;41.76
60319;BME280;46163;52.306;5.634;2023-03-01T13:17:30;102614.59;;;18.30;41.53
60319;BME280;46163;52.306;5.634;2023-03-01T13:19:58;102607.34;;;18.30;41.42
60319;BME280;46163;52.306;5.634;2023-03-01T13:22:30;102610.88;;;18.31;41.33
60319;BME280;46163;52.306;5.634;2023-03-01T13:25:13;102602.78;;;18.31;41.36
60319;BME280;46163;52.306;5.634;2023-03-01T13:27:39;102602.78;;;18.31;41.52
60319;BME280;46163;52.306;5.634;2023-03-01T13:30:39;102593.66;;;18.32;41.66
60319;BME280;46163;52.306;5.634;2023-03-01T13:35:56;102595.94;;;18.35;41.42
60319;BME280;46163;52.306;5.634;2023-03-01T13:38:38;102597.38;;;18.38;41.69
60319;BME280;46163;52.306;5.634;2023-03-01T13:41:07;102594.47;;;18.39;41.30
60319;BME280;46163;52.306;5.634;2023-03-01T13:43:36;102581.81;;;18.40;41.45
60319;BME280;46163;52.306;5.634;2023-03-01T13:46:18;102577.69;;;18.44;41.55
60319;BME280;46163;52.306;5.634;2023-03-01T13:48:49;102579.34;;;18.45;41.17
60319;BME280;46163;52.306;5.634;2023-03-01T13:51:16;102563.16;;;18.45;41.42
60319;BME280;46163;52.306;5.634;2023-03-01T13:53:49;102569.16;;;18.47;41.27
60319;BME280;46163;52.306;5.634;2023-03-01T13:56:21;102567.06;;;18.49;41.29
60319;BME280;46163;52.306;5.634;2023-03-01T14:01:32;102559.41;;;18.52;41.07
60319;BME280;46163;52.306;5.634;2023-03-01T14:03:59;102559.41;;;18.52;41.24
60319;BME280;46163;52.306;5.634;2023-03-01T14:06:31;102554.84;;;18.53;41.09
60319;BME280;46163;52.306;5.634;2023-03-01T14:09:14;102543.25;;;18.52;41.01
60319;BME280;46163;52.306;5.634;2023-03-01T14:12:11;102541.16;;;18.54;40.94
60319;BME280;46163;52.306;5.634;2023-03-01T14:15:05;102541.16;;;18.54;41.10
60319;BME280;46163;52.306;5.634;2023-03-01T14:17:41;102532.84;;;18.56;41.02
60319;BME280;46163;52.306;5.634;2023-03-01T14:20:23;102527.06;;;18.52;40.92
60319;BME280;46163;52.306;5.634;2023-03-01T14:22:55;102520.84;;;18.52;41.10
60319;BME280;46163;52.306;5.634;2023-03-01T14:25:25;102514.63;;;18.51;41.10
60319;BME280;46163;52.306;5.634;2023-03-01T14:27:55;102515.63;;;18.50;40.98
60319;BME280;46163;52.306;5.634;2023-03-01T14:30:24;102512.13;;;18.50;41.04
60319;BME280;46163;52.306;5.634;2023-03-01T14:32:59;102503.41;;;18.48;40.82
60319;BME280;46163;52.306;5.634;2023-03-01T14:35:30;102509.84;;;18.47;40.76
60319;BME280;46163;52.306;5.634;2023-03-01T14:37:58;102507.38;;;18.45;40.82
60319;BME280;46163;52.306;5.634;2023-03-01T14:40:33;102503.84;;;18.45;40.79
60319;BME280;46163;52.306;5.634;2023-03-01T14:43:02;102497.03;;;18.42;41.01
60319;BME280;46163;52.306;5.634;2023-03-01T14:45:33;102508.81;;;18.41;40.83
60319;BME280;46163;52.306;5.634;2023-03-01T14:48:01;102494.75;;;18.39;41.02
60319;BME280;46163;52.306;5.634;2023-03-01T14:50:30;102488.13;;;18.35;41.15
60319;BME280;46163;52.306;5.634;2023-03-01T14:52:59;102488.75;;;18.37;40.98
60319;BME280;46163;52.306;5.634;2023-03-01T14:55:46;102490.59;;;18.36;40.82